sensor_id;sensor_type;location;lat;lon;timestamp;temperature;humidity
69281;SHT31;56392;51.082;17.080;2024-02-04T00:00:28;8.45;96.56
69281;SHT31;56392;51.082;17.080;2024-02-04T00:06:11;8.41;96.87
69281;SHT31;56392;51.082;17.080;2024-02-04T00:11:35;8.37;96.98
69281;SHT31;56392;51.082;17.080;2024-02-04T00:16:58;8.25;96.71
69281;SHT31;56392;51.082;17.080;2024-02-04T00:22:21;8.23;96.90
69281;SHT31;56392;51.082;17.080;2024-02-04T00:27:47;8.08;96.55
69281;SHT31;56392;51.082;17.080;2024-02-04T00:33:10;7.97;96.80
69281;SHT31;56392;51.082;17.080;2024-02-04T00:38:33;7.90;96.75
69281;SHT31;56392;51.082;17.080;2024-02-04T00:44:00;7.87;96.45
69281;SHT31;56392;51.082;17.080;2024-02-04T00:49:23;7.83;96.55
69281;SHT31;56392;51.082;17.080;2024-02-04T00:54:48;7.80;96.60
69281;SHT31;56392;51.082;17.080;2024-02-04T01:00:13;7.77;96.64
69281;SHT31;56392;51.082;17.080;2024-02-04T01:05:36;7.66;96.40
69281;SHT31;56392;51.082;17.080;2024-02-04T01:10:59;7.49;95.83
69281;SHT31;56392;51.082;17.080;2024-02-04T01:16:23;7.45;96.08
69281;SHT31;56392;51.082;17.080;2024-02-04T01:21:46;7.36;95.84
69281;SHT31;56392;51.082;17.080;2024-02-04T01:27:09;7.32;95.91
69281;SHT31;56392;51.082;17.080;2024-02-04T01:32:33;7.32;95.68
69281;SHT31;56392;51.082;17.080;2024-02-04T01:37:56;7.31;95.97
69281;SHT31;56392;51.082;17.080;2024-02-04T01:43:19;7.25;95.95
69281;SHT31;56392;51.082;17.080;2024-02-04T01:48:46;7.21;96.03
69281;SHT31;56392;51.082;17.080;2024-02-04T01:54:09;7.19;96.16
69281;SHT31;56392;51.082;17.080;2024-02-04T01:59:33;7.32;96.57
69281;SHT31;56392;51.082;17.080;2024-02-04T02:04:57;7.51;96.72
69281;SHT31;56392;51.082;17.080;2024-02-04T02:10:20;7.61;96.73
69281;SHT31;56392;51.082;17.080;2024-02-04T02:15:48;7.69;96.72
69281;SHT31;56392;51.082;17.080;2024-02-04T02:21:26;7.76;96.67
69281;SHT31;56392;51.082;17.080;2024-02-04T02:26:57;7.80;96.32
69281;SHT31;56392;51.082;17.080;2024-02-04T02:32:20;7.87;96.63
69281;SHT31;56392;51.082;17.080;2024-02-04T02:37:47;7.91;96.52
69281;SHT31;56392;51.082;17.080;2024-02-04T02:43:17;7.94;96.58
69281;SHT31;56392;51.082;17.080;2024-02-04T02:48:41;7.89;95.68
69281;SHT31;56392;51.082;17.080;2024-02-04T02:54:04;7.86;95.64
69281;SHT31;56392;51.082;17.080;2024-02-04T02:59:29;7.79;95.21
69281;SHT31;56392;51.082;17.080;2024-02-04T03:04:52;7.61;94.76
69281;SHT31;56392;51.082;17.080;2024-02-04T03:10:15;7.46;93.87
69281;SHT31;56392;51.082;17.080;2024-02-04T03:15:45;7.51;93.92
69281;SHT31;56392;51.082;17.080;2024-02-04T03:21:12;7.32;92.52
69281;SHT31;56392;51.082;17.080;2024-02-04T03:26:36;7.15;92.86
69281;SHT31;56392;51.082;17.080;2024-02-04T03:32:01;7.18;92.86
69281;SHT31;56392;51.082;17.080;2024-02-04T03:37:24;7.11;92.16
69281;SHT31;56392;51.082;17.080;2024-02-04T03:42:47;7.01;92.05
69281;SHT31;56392;51.082;17.080;2024-02-04T03:48:11;6.95;92.16
69281;SHT31;56392;51.082;17.080;2024-02-04T03:53:35;6.85;91.88
69281;SHT31;56392;51.082;17.080;2024-02-04T03:58:58;6.87;90.47
69281;SHT31;56392;51.082;17.080;2024-02-04T04:04:23;6.74;90.38
69281;SHT31;56392;51.082;17.080;2024-02-04T04:09:47;6.63;90.16
69281;SHT31;56392;51.082;17.080;2024-02-04T04:15:10;6.61;89.95
69281;SHT31;56392;51.082;17.080;2024-02-04T04:20:35;6.53;89.26
69281;SHT31;56392;51.082;17.080;2024-02-04T04:25:59;6.64;88.63
69281;SHT31;56392;51.082;17.080;2024-02-04T04:31:23;6.69;87.47
69281;SHT31;56392;51.082;17.080;2024-02-04T04:36:47;6.69;88.31
69281;SHT31;56392;51.082;17.080;2024-02-04T04:42:10;6.79;87.74
69281;SHT31;56392;51.082;17.080;2024-02-04T04:47:33;6.90;86.65
69281;SHT31;56392;51.082;17.080;2024-02-04T04:52:59;6.81;86.91
69281;SHT31;56392;51.082;17.080;2024-02-04T04:58:22;6.80;85.66
69281;SHT31;56392;51.082;17.080;2024-02-04T05:03:45;6.69;86.35
69281;SHT31;56392;51.082;17.080;2024-02-04T05:09:11;6.58;86.91
69281;SHT31;56392;51.082;17.080;2024-02-04T05:14:34;6.44;87.09
69281;SHT31;56392;51.082;17.080;2024-02-04T05:19:57;6.47;86.70
69281;SHT31;56392;51.082;17.080;2024-02-04T05:25:24;6.40;86.95
69281;SHT31;56392;51.082;17.080;2024-02-04T05:30:48;6.33;87.02
69281;SHT31;56392;51.082;17.080;2024-02-04T05:36:11;6.29;86.32
69281;SHT31;56392;51.082;17.080;2024-02-04T05:41:35;6.30;86.35
69281;SHT31;56392;51.082;17.080;2024-02-04T05:46:58;6.25;86.57
69281;SHT31;56392;51.082;17.080;2024-02-04T05:52:22;6.16;86.64
69281;SHT31;56392;51.082;17.080;2024-02-04T05:57:46;6.15;86.05
69281;SHT31;56392;51.082;17.080;2024-02-04T06:03:10;6.16;85.36
69281;SHT31;56392;51.082;17.080;2024-02-04T06:08:33;6.15;85.49
69281;SHT31;56392;51.082;17.080;2024-02-04T06:13:57;6.08;85.25
69281;SHT31;56392;51.082;17.080;2024-02-04T06:19:20;6.03;85.55
69281;SHT31;56392;51.082;17.080;2024-02-04T06:24:43;5.98;85.84
69281;SHT31;56392;51.082;17.080;2024-02-04T06:30:09;5.98;86.04
69281;SHT31;56392;51.082;17.080;2024-02-04T06:35:32;5.94;86.17
69281;SHT31;56392;51.082;17.080;2024-02-04T06:40:55;5.94;85.91
69281;SHT31;56392;51.082;17.080;2024-02-04T06:46:26;5.95;85.99
69281;SHT31;56392;51.082;17.080;2024-02-04T06:51:49;6.01;85.71
69281;SHT31;56392;51.082;17.080;2024-02-04T06:57:18;6.01;85.43
69281;SHT31;56392;51.082;17.080;2024-02-04T07:02:43;6.03;85.08
69281;SHT31;56392;51.082;17.080;2024-02-04T07:08:07;6.09;84.74
69281;SHT31;56392;51.082;17.080;2024-02-04T07:13:32;6.19;84.37
69281;SHT31;56392;51.082;17.080;2024-02-04T07:18:56;6.29;83.88
69281;SHT31;56392;51.082;17.080;2024-02-04T07:24:19;6.43;83.40
69281;SHT31;56392;51.082;17.080;2024-02-04T07:29:43;6.51;83.43
69281;SHT31;56392;51.082;17.080;2024-02-04T07:35:08;6.73;83.22
69281;SHT31;56392;51.082;17.080;2024-02-04T07:40:31;6.92;82.68
69281;SHT31;56392;51.082;17.080;2024-02-04T07:45:54;6.97;82.18
69281;SHT31;56392;51.082;17.080;2024-02-04T07:51:18;7.11;81.86
69281;SHT31;56392;51.082;17.080;2024-02-04T07:56:44;7.35;81.58
69281;SHT31;56392;51.082;17.080;2024-02-04T08:02:08;7.33;81.32
69281;SHT31;56392;51.082;17.080;2024-02-04T08:07:33;7.45;80.56
69281;SHT31;56392;51.082;17.080;2024-02-04T08:12:56;7.65;79.59
69281;SHT31;56392;51.082;17.080;2024-02-04T08:18:19;7.80;78.31
69281;SHT31;56392;51.082;17.080;2024-02-04T08:23:43;8.08;76.68
69281;SHT31;56392;51.082;17.080;2024-02-04T08:29:07;8.45;76.34
69281;SHT31;56392;51.082;17.080;2024-02-04T08:34:30;8.85;73.49
69281;SHT31;56392;51.082;17.080;2024-02-04T08:39:55;9.07;71.77
69281;SHT31;56392;51.082;17.080;2024-02-04T08:45:18;9.43;71.44
69281;SHT31;56392;51.082;17.080;2024-02-04T08:50:41;9.81;70.49
69281;SHT31;56392;51.082;17.080;2024-02-04T08:56:07;9.62;70.10
69281;SHT31;56392;51.082;17.080;2024-02-04T09:01:30;9.45;69.76
69281;SHT31;56392;51.082;17.080;2024-02-04T09:06:53;9.58;69.52
69281;SHT31;56392;51.082;17.080;2024-02-04T09:12:17;9.73;69.56
69281;SHT31;56392;51.082;17.080;2024-02-04T09:17:40;9.75;69.40
69281;SHT31;56392;51.082;17.080;2024-02-04T09:23:05;9.77;69.09
69281;SHT31;56392;51.082;17.080;2024-02-04T09:28:44;9.71;69.65
69281;SHT31;56392;51.082;17.080;2024-02-04T09:34:09;9.77;69.86
69281;SHT31;56392;51.082;17.080;2024-02-04T09:39:32;9.82;69.80
69281;SHT31;56392;51.082;17.080;2024-02-04T09:44:59;9.70;70.30
69281;SHT31;56392;51.082;17.080;2024-02-04T09:50:23;9.54;70.27
69281;SHT31;56392;51.082;17.080;2024-02-04T09:55:47;9.57;71.02
69281;SHT31;56392;51.082;17.080;2024-02-04T10:01:13;9.68;71.28
69281;SHT31;56392;51.082;17.080;2024-02-04T10:06:37;10.39;69.68
69281;SHT31;56392;51.082;17.080;2024-02-04T10:12:01;10.36;69.77
69281;SHT31;56392;51.082;17.080;2024-02-04T10:17:25;10.19;70.27
69281;SHT31;56392;51.082;17.080;2024-02-04T10:22:49;10.12;70.94
69281;SHT31;56392;51.082;17.080;2024-02-04T10:28:13;9.92;71.24
69281;SHT31;56392;51.082;17.080;2024-02-04T10:33:39;9.96;72.41
69281;SHT31;56392;51.082;17.080;2024-02-04T10:39:03;10.08;72.82
69281;SHT31;56392;51.082;17.080;2024-02-04T10:44:29;10.25;74.03
69281;SHT31;56392;51.082;17.080;2024-02-04T10:49:58;10.57;72.56
69281;SHT31;56392;51.082;17.080;2024-02-04T10:55:27;10.77;72.65
69281;SHT31;56392;51.082;17.080;2024-02-04T11:00:52;11.07;72.10
69281;SHT31;56392;51.082;17.080;2024-02-04T11:06:20;11.28;72.27
69281;SHT31;56392;51.082;17.080;2024-02-04T11:11:44;11.27;72.29
69281;SHT31;56392;51.082;17.080;2024-02-04T11:17:26;11.04;72.95
69281;SHT31;56392;51.082;17.080;2024-02-04T11:23:14;11.15;73.56
69281;SHT31;56392;51.082;17.080;2024-02-04T11:28:41;11.08;73.69
69281;SHT31;56392;51.082;17.080;2024-02-04T11:34:04;11.04;74.10
69281;SHT31;56392;51.082;17.080;2024-02-04T11:39:31;10.83;74.73
69281;SHT31;56392;51.082;17.080;2024-02-04T11:45:06;10.59;75.85
69281;SHT31;56392;51.082;17.080;2024-02-04T11:50:31;10.53;76.12
69281;SHT31;56392;51.082;17.080;2024-02-04T11:56:03;10.60;75.97
69281;SHT31;56392;51.082;17.080;2024-02-04T12:01:26;10.80;75.61
69281;SHT31;56392;51.082;17.080;2024-02-04T12:06:50;10.87;75.31
69281;SHT31;56392;51.082;17.080;2024-02-04T12:12:14;10.88;75.23
69281;SHT31;56392;51.082;17.080;2024-02-04T12:17:38;10.93;74.25
69281;SHT31;56392;51.082;17.080;2024-02-04T12:23:02;11.14;73.79
69281;SHT31;56392;51.082;17.080;2024-02-04T12:28:31;11.18;73.41
69281;SHT31;56392;51.082;17.080;2024-02-04T12:33:57;11.24;73.44
69281;SHT31;56392;51.082;17.080;2024-02-04T12:39:22;11.21;73.34
69281;SHT31;56392;51.082;17.080;2024-02-04T12:44:58;11.21;73.64
69281;SHT31;56392;51.082;17.080;2024-02-04T12:50:21;11.19;73.89
69281;SHT31;56392;51.082;17.080;2024-02-04T12:55:58;11.27;73.69
69281;SHT31;56392;51.082;17.080;2024-02-04T13:01:23;11.28;73.63
69281;SHT31;56392;51.082;17.080;2024-02-04T13:06:46;11.35;73.66
69281;SHT31;56392;51.082;17.080;2024-02-04T13:12:10;11.28;73.92
69281;SHT31;56392;51.082;17.080;2024-02-04T13:17:35;11.14;73.98
69281;SHT31;56392;51.082;17.080;2024-02-04T13:22:59;11.01;74.27
69281;SHT31;56392;51.082;17.080;2024-02-04T13:28:25;10.97;74.39
69281;SHT31;56392;51.082;17.080;2024-02-04T13:33:51;10.87;74.70
69281;SHT31;56392;51.082;17.080;2024-02-04T13:39:15;10.85;74.95
69281;SHT31;56392;51.082;17.080;2024-02-04T13:44:39;10.84;74.73
69281;SHT31;56392;51.082;17.080;2024-02-04T13:50:05;10.96;74.39
69281;SHT31;56392;51.082;17.080;2024-02-04T13:55:31;10.87;74.79
69281;SHT31;56392;51.082;17.080;2024-02-04T14:00:54;10.67;75.20
69281;SHT31;56392;51.082;17.080;2024-02-04T14:06:19;10.56;76.16
69281;SHT31;56392;51.082;17.080;2024-02-04T14:11:42;10.33;77.86
69281;SHT31;56392;51.082;17.080;2024-02-04T14:17:06;9.98;83.78
69281;SHT31;56392;51.082;17.080;2024-02-04T14:22:32;9.43;88.90
69281;SHT31;56392;51.082;17.080;2024-02-04T14:27:55;9.14;89.93
69281;SHT31;56392;51.082;17.080;2024-02-04T14:33:19;9.23;90.71
69281;SHT31;56392;51.082;17.080;2024-02-04T14:38:44;9.06;90.43
69281;SHT31;56392;51.082;17.080;2024-02-04T14:44:07;9.05;90.62
69281;SHT31;56392;51.082;17.080;2024-02-04T14:49:31;8.89;88.97
69281;SHT31;56392;51.082;17.080;2024-02-04T14:54:56;8.86;87.30
69281;SHT31;56392;51.082;17.080;2024-02-04T15:00:19;8.85;87.22
69281;SHT31;56392;51.082;17.080;2024-02-04T15:05:46;8.87;85.11
69281;SHT31;56392;51.082;17.080;2024-02-04T15:11:13;8.90;84.60
69281;SHT31;56392;51.082;17.080;2024-02-04T15:16:37;8.86;83.06
69281;SHT31;56392;51.082;17.080;2024-02-04T15:22:01;8.92;81.06
69281;SHT31;56392;51.082;17.080;2024-02-04T15:27:27;8.89;81.28
69281;SHT31;56392;51.082;17.080;2024-02-04T15:32:51;8.83;79.81
69281;SHT31;56392;51.082;17.080;2024-02-04T15:38:16;8.85;79.85
69281;SHT31;56392;51.082;17.080;2024-02-04T15:43:41;8.86;78.32
69281;SHT31;56392;51.082;17.080;2024-02-04T15:49:07;8.97;77.59
69281;SHT31;56392;51.082;17.080;2024-02-04T15:54:35;9.02;76.33
69281;SHT31;56392;51.082;17.080;2024-02-04T16:00:02;9.09;75.82
69281;SHT31;56392;51.082;17.080;2024-02-04T16:05:33;9.02;75.27
69281;SHT31;56392;51.082;17.080;2024-02-04T16:10:56;9.05;75.74
69281;SHT31;56392;51.082;17.080;2024-02-04T16:16:34;9.00;75.76
69281;SHT31;56392;51.082;17.080;2024-02-04T16:21:59;8.96;76.31
69281;SHT31;56392;51.082;17.080;2024-02-04T16:27:24;8.92;75.63
69281;SHT31;56392;51.082;17.080;2024-02-04T16:32:49;8.92;75.20
69281;SHT31;56392;51.082;17.080;2024-02-04T16:38:13;8.87;75.33
69281;SHT31;56392;51.082;17.080;2024-02-04T16:43:36;8.83;75.09
69281;SHT31;56392;51.082;17.080;2024-02-04T16:49:01;8.77;75.60
69281;SHT31;56392;51.082;17.080;2024-02-04T16:54:28;8.72;75.77
69281;SHT31;56392;51.082;17.080;2024-02-04T16:59:52;8.72;75.50
69281;SHT31;56392;51.082;17.080;2024-02-04T17:05:27;8.69;75.19
69281;SHT31;56392;51.082;17.080;2024-02-04T17:10:51;8.72;74.75
69281;SHT31;56392;51.082;17.080;2024-02-04T17:16:17;8.75;74.66
69281;SHT31;56392;51.082;17.080;2024-02-04T17:21:47;8.71;74.92
69281;SHT31;56392;51.082;17.080;2024-02-04T17:27:14;8.72;74.73
69281;SHT31;56392;51.082;17.080;2024-02-04T17:32:40;8.71;74.72
69281;SHT31;56392;51.082;17.080;2024-02-04T17:38:07;8.69;75.20
69281;SHT31;56392;51.082;17.080;2024-02-04T17:43:33;8.66;74.93
69281;SHT31;56392;51.082;17.080;2024-02-04T17:48:57;8.65;73.76
69281;SHT31;56392;51.082;17.080;2024-02-04T17:54:21;8.71;73.46
69281;SHT31;56392;51.082;17.080;2024-02-04T17:59:45;8.73;72.84
69281;SHT31;56392;51.082;17.080;2024-02-04T18:05:09;8.71;72.71
69281;SHT31;56392;51.082;17.080;2024-02-04T18:10:34;8.71;72.48
69281;SHT31;56392;51.082;17.080;2024-02-04T18:15:57;8.68;72.90
69281;SHT31;56392;51.082;17.080;2024-02-04T18:21:22;8.62;73.25
69281;SHT31;56392;51.082;17.080;2024-02-04T18:26:46;8.62;73.54
69281;SHT31;56392;51.082;17.080;2024-02-04T18:32:11;8.62;73.69
69281;SHT31;56392;51.082;17.080;2024-02-04T18:37:38;8.61;73.32
69281;SHT31;56392;51.082;17.080;2024-02-04T18:43:03;8.66;72.85
69281;SHT31;56392;51.082;17.080;2024-02-04T18:48:27;8.65;72.05
69281;SHT31;56392;51.082;17.080;2024-02-04T18:53:52;8.66;71.89
69281;SHT31;56392;51.082;17.080;2024-02-04T18:59:18;8.66;71.95
69281;SHT31;56392;51.082;17.080;2024-02-04T19:04:53;8.66;72.54
69281;SHT31;56392;51.082;17.080;2024-02-04T19:10:18;8.62;73.01
69281;SHT31;56392;51.082;17.080;2024-02-04T19:15:45;8.58;73.60
69281;SHT31;56392;51.082;17.080;2024-02-04T19:21:08;8.54;74.00
69281;SHT31;56392;51.082;17.080;2024-02-04T19:26:31;8.52;74.22
69281;SHT31;56392;51.082;17.080;2024-02-04T19:31:59;8.56;74.18
69281;SHT31;56392;51.082;17.080;2024-02-04T19:37:23;8.55;74.20
69281;SHT31;56392;51.082;17.080;2024-02-04T19:42:47;8.52;73.66
69281;SHT31;56392;51.082;17.080;2024-02-04T19:48:12;8.55;73.65
69281;SHT31;56392;51.082;17.080;2024-02-04T19:53:35;8.54;73.16
69281;SHT31;56392;51.082;17.080;2024-02-04T19:58:59;8.59;72.53
69281;SHT31;56392;51.082;17.080;2024-02-04T20:04:27;8.55;72.32
69281;SHT31;56392;51.082;17.080;2024-02-04T20:09:50;8.54;72.10
69281;SHT31;56392;51.082;17.080;2024-02-04T20:15:13;8.52;72.49
69281;SHT31;56392;51.082;17.080;2024-02-04T20:20:42;8.48;73.41
69281;SHT31;56392;51.082;17.080;2024-02-04T20:26:07;8.35;74.34
69281;SHT31;56392;51.082;17.080;2024-02-04T20:31:33;8.21;75.01
69281;SHT31;56392;51.082;17.080;2024-02-04T20:36:58;8.10;75.60
69281;SHT31;56392;51.082;17.080;2024-02-04T20:42:22;8.00;76.21
69281;SHT31;56392;51.082;17.080;2024-02-04T20:47:45;7.87;77.28
69281;SHT31;56392;51.082;17.080;2024-02-04T20:53:11;7.82;77.63
69281;SHT31;56392;51.082;17.080;2024-02-04T20:58:36;7.73;78.34
69281;SHT31;56392;51.082;17.080;2024-02-04T21:04:00;7.61;80.46
69281;SHT31;56392;51.082;17.080;2024-02-04T21:09:26;7.58;81.27
69281;SHT31;56392;51.082;17.080;2024-02-04T21:14:50;7.51;81.43
69281;SHT31;56392;51.082;17.080;2024-02-04T21:20:13;7.43;82.05
69281;SHT31;56392;51.082;17.080;2024-02-04T21:25:39;7.18;82.56
69281;SHT31;56392;51.082;17.080;2024-02-04T21:31:03;7.12;82.96
69281;SHT31;56392;51.082;17.080;2024-02-04T21:36:26;7.14;82.58
69281;SHT31;56392;51.082;17.080;2024-02-04T21:41:51;7.14;82.80
69281;SHT31;56392;51.082;17.080;2024-02-04T21:47:15;7.19;82.47
69281;SHT31;56392;51.082;17.080;2024-02-04T21:52:41;7.09;83.67
69281;SHT31;56392;51.082;17.080;2024-02-04T21:58:07;7.08;84.21
69281;SHT31;56392;51.082;17.080;2024-02-04T22:03:32;7.02;85.02
69281;SHT31;56392;51.082;17.080;2024-02-04T22:08:56;6.85;86.83
69281;SHT31;56392;51.082;17.080;2024-02-04T22:14:24;6.77;88.11
69281;SHT31;56392;51.082;17.080;2024-02-04T22:19:47;6.64;88.62
69281;SHT31;56392;51.082;17.080;2024-02-04T22:25:10;6.63;88.59
69281;SHT31;56392;51.082;17.080;2024-02-04T22:30:35;6.66;88.85
69281;SHT31;56392;51.082;17.080;2024-02-04T22:35:59;6.64;89.11
69281;SHT31;56392;51.082;17.080;2024-02-04T22:41:22;6.64;90.19
69281;SHT31;56392;51.082;17.080;2024-02-04T22:46:47;6.69;90.40
69281;SHT31;56392;51.082;17.080;2024-02-04T22:52:11;6.67;90.50
69281;SHT31;56392;51.082;17.080;2024-02-04T22:57:34;6.73;90.90
69281;SHT31;56392;51.082;17.080;2024-02-04T23:03:02;6.70;90.22
69281;SHT31;56392;51.082;17.080;2024-02-04T23:08:27;6.70;90.71
69281;SHT31;56392;51.082;17.080;2024-02-04T23:13:51;6.73;90.66
69281;SHT31;56392;51.082;17.080;2024-02-04T23:19:16;6.74;90.36
69281;SHT31;56392;51.082;17.080;2024-02-04T23:24:41;6.77;90.48
69281;SHT31;56392;51.082;17.080;2024-02-04T23:30:06;6.69;91.25
69281;SHT31;56392;51.082;17.080;2024-02-04T23:35:30;6.71;91.43
69281;SHT31;56392;51.082;17.080;2024-02-04T23:40:53;6.74;91.77
69281;SHT31;56392;51.082;17.080;2024-02-04T23:46:17;6.76;92.04
69281;SHT31;56392;51.082;17.080;2024-02-04T23:51:43;6.76;92.15
69281;SHT31;56392;51.082;17.080;2024-02-04T23:57:06;6.80;92.26
